Time;durP1;ratioP1;P1;durP2;ratioP2;P2;SDS_P1;SDS_P2;PMS_P1;PMS_P2;Temp;Humidity;BMP_temperature;BMP_pressure;BME280_temperature;BME280_humidity;BME280_pressure;Samples;Min_cycle;Max_cycle;Signal;HPM_P1;HPM_P2
2024/03/06 00:00:41;;;;;;;18.80;11.80;;;;;;;0.55;100.00;100345.17;109469;1253;59510;-55
2024/03/06 00:03:08;;;;;;;23.00;12.20;;;;;;;0.56;100.00;100346.94;109471;1254;74728;-54
2024/03/06 00:05:36;;;;;;;19.60;11.40;;;;;;;0.58;100.00;100348.86;109442;1253;66863;-55
2024/03/06 00:08:04;;;;;;;21.50;12.30;;;;;;;0.58;100.00;100348.38;109470;1253;72726;-54
2024/03/06 00:10:31;;;;;;;17.70;11.60;;;;;;;0.57;100.00;100345.02;109388;1252;59408;-57
2024/03/06 00:12:59;;;;;;;20.00;12.60;;;;;;;0.57;100.00;100347.02;109428;1253;60076;-53
2024/03/06 00:15:27;;;;;;;20.10;11.50;;;;;;;0.58;100.00;100346.81;109470;1252;74734;-54
2024/03/06 00:17:55;;;;;;;18.90;10.90;;;;;;;0.59;100.00;100349.14;109449;1253;67053;-54
2024/03/06 00:20:23;;;;;;;17.30;10.90;;;;;;;0.62;100.00;100348.37;109463;1253;72658;-53
2024/03/06 00:22:50;;;;;;;16.40;10.80;;;;;;;0.64;100.00;100343.26;109395;1253;58997;-55
2024/03/06 00:25:18;;;;;;;19.40;12.10;;;;;;;0.67;100.00;100345.05;109455;1253;59261;-53
2024/03/06 00:27:47;;;;;;;17.90;11.90;;;;;;;0.70;100.00;100342.06;109458;1253;73424;-54
2024/03/06 00:30:15;;;;;;;18.60;11.40;;;;;;;0.72;100.00;100336.45;109447;1253;66926;-53
2024/03/06 00:32:42;;;;;;;18.10;10.90;;;;;;;0.75;100.00;100338.88;109434;1253;72707;-54
2024/03/06 00:35:11;;;;;;;18.40;12.00;;;;;;;0.75;100.00;100339.36;109401;1253;58919;-54
2024/03/06 00:37:39;;;;;;;21.00;11.70;;;;;;;0.74;100.00;100337.36;109464;1252;60072;-53
2024/03/06 00:40:08;;;;;;;20.10;12.60;;;;;;;0.73;100.00;100338.13;109473;1253;73668;-53
2024/03/06 00:42:36;;;;;;;22.90;12.80;;;;;;;0.73;100.00;100336.55;109412;1252;66977;-54
2024/03/06 00:45:04;;;;;;;16.80;11.10;;;;;;;0.74;100.00;100334.30;109461;1253;72705;-53
2024/03/06 00:47:31;;;;;;;18.20;11.50;;;;;;;0.74;100.00;100333.27;109423;1252;58938;-54
2024/03/06 00:49:59;;;;;;;19.40;12.60;;;;;;;0.76;100.00;100328.36;109430;1252;60069;-54
2024/03/06 00:52:27;;;;;;;19.70;12.60;;;;;;;0.74;100.00;100329.50;109414;1253;74739;-55
2024/03/06 00:54:56;;;;;;;17.60;11.90;;;;;;;0.72;100.00;100330.84;109489;1253;66983;-54
2024/03/06 00:57:23;;;;;;;19.80;11.60;;;;;;;0.70;100.00;100330.80;109492;1252;72004;-53
2024/03/06 00:59:51;;;;;;;21.00;12.50;;;;;;;0.69;100.00;100334.68;109447;1253;59214;-53
2024/03/06 01:02:18;;;;;;;18.70;11.70;;;;;;;0.69;100.00;100333.82;109467;1253;59417;-53
2024/03/06 01:04:46;;;;;;;18.60;12.20;;;;;;;0.68;100.00;100331.45;109432;1253;74173;-53
2024/03/06 01:07:14;;;;;;;19.10;11.20;;;;;;;0.70;100.00;100332.16;109401;1253;66966;-53
2024/03/06 01:09:42;;;;;;;18.00;11.50;;;;;;;0.70;100.00;100331.34;109394;1252;72758;-54
2024/03/06 01:12:10;;;;;;;18.30;12.10;;;;;;;0.70;100.00;100331.36;109399;1252;59622;-54
2024/03/06 01:14:38;;;;;;;18.80;11.70;;;;;;;0.65;100.00;100328.77;109389;1253;60025;-57
2024/03/06 01:17:07;;;;;;;19.40;12.20;;;;;;;0.61;100.00;100332.52;109386;1253;75090;-54
2024/03/06 01:19:34;;;;;;;19.60;11.70;;;;;;;0.59;100.00;100329.08;109305;1253;67140;-54
2024/03/06 01:22:02;;;;;;;19.30;12.00;;;;;;;0.59;100.00;100332.23;109425;1252;71419;-53
2024/03/06 01:24:30;;;;;;;20.80;11.60;;;;;;;0.59;100.00;100334.37;109399;1253;58975;-58
2024/03/06 01:26:57;;;;;;;22.80;12.00;;;;;;;0.59;100.00;100332.53;109457;1253;60060;-53
2024/03/06 01:29:25;;;;;;;18.60;12.00;;;;;;;0.56;100.00;100333.57;109385;1253;74655;-54
2024/03/06 01:31:52;;;;;;;19.30;11.10;;;;;;;0.54;100.00;100335.50;109449;1253;65684;-54
2024/03/06 01:34:20;;;;;;;20.10;11.00;;;;;;;0.48;100.00;100332.51;109408;1253;72706;-53
2024/03/06 01:36:48;;;;;;;19.80;12.00;;;;;;;0.44;100.00;100328.17;109389;1252;59640;-54
2024/03/06 01:39:16;;;;;;;19.50;11.70;;;;;;;0.42;100.00;100328.52;109408;1253;60316;-53
2024/03/06 01:41:48;;;;;;;20.30;11.60;;;;;;;0.35;100.00;100322.71;109390;1253;74514;-54
2024/03/06 01:44:18;;;;;;;16.20;11.10;;;;;;;0.29;100.00;100324.91;109392;1252;66124;-54
2024/03/06 01:46:46;;;;;;;17.40;10.60;;;;;;;0.20;100.00;100331.83;109392;1253;71468;-57
2024/03/06 01:49:15;;;;;;;22.50;11.20;;;;;;;0.11;100.00;100331.31;109382;1253;58895;-52
2024/03/06 01:51:56;;;;;;;16.90;11.50;;;;;;;0.03;100.00;100336.26;109294;1252;206326;-53
2024/03/06 01:54:23;;;;;;;16.60;10.50;;;;;;;-0.07;100.00;100336.76;109453;1252;73335;-53
2024/03/06 01:56:51;;;;;;;18.30;11.30;;;;;;;-0.15;100.00;100337.34;109405;1253;66194;-59
2024/03/06 01:59:19;;;;;;;16.00;10.40;;;;;;;-0.22;100.00;100336.04;109308;1253;72083;-53
2024/03/06 02:02:02;;;;;;;18.10;9.90;;;;;;;-0.33;100.00;100336.42;109270;1252;59012;-53
2024/03/06 02:04:30;;;;;;;19.70;10.40;;;;;;;-0.41;100.00;100337.04;109314;1253;59421;-53
2024/03/06 02:06:58;;;;;;;18.60;10.50;;;;;;;-0.47;100.00;100341.76;109286;1252;75134;-54
2024/03/06 02:09:26;;;;;;;20.60;11.00;;;;;;;-0.53;100.00;100345.20;109451;1252;65884;-54
2024/03/06 02:11:54;;;;;;;16.70;11.00;;;;;;;-0.59;100.00;100347.84;109471;1253;71432;-53
2024/03/06 02:14:21;;;;;;;19.60;10.80;;;;;;;-0.64;100.00;100346.73;109421;1253;59243;-54
2024/03/06 02:16:49;;;;;;;21.00;11.80;;;;;;;-0.69;100.00;100348.77;109280;1253;59013;-54
2024/03/06 02:19:17;;;;;;;17.00;9.80;;;;;;;-0.74;100.00;100351.65;109453;1253;74795;-53
2024/03/06 02:21:45;;;;;;;16.00;10.10;;;;;;;-0.78;100.00;100357.27;109428;1252;66919;-53
2024/03/06 02:24:14;;;;;;;17.40;9.90;;;;;;;-0.83;100.00;100362.39;109458;1253;72694;-53
2024/03/06 02:26:41;;;;;;;14.50;9.90;;;;;;;-0.88;100.00;100361.85;109430;1253;59436;-53
2024/03/06 02:29:10;;;;;;;17.10;9.60;;;;;;;-0.93;100.00;100360.66;109421;1253;60525;-53
2024/03/06 02:31:39;;;;;;;17.50;9.50;;;;;;;-0.97;100.00;100360.61;109476;1252;73447;-53
2024/03/06 02:34:07;;;;;;;16.90;9.60;;;;;;;-1.00;100.00;100362.70;109536;1252;67077;-54
2024/03/06 02:36:35;;;;;;;15.10;9.30;;;;;;;-1.05;100.00;100362.52;109454;1253;72690;-53
2024/03/06 02:39:08;;;;;;;16.90;8.30;;;;;;;-1.09;100.00;100366.20;109365;1253;58921;-53
2024/03/06 02:41:36;;;;;;;19.60;9.80;;;;;;;-1.12;100.00;100363.88;109526;1253;60075;-53
2024/03/06 02:44:04;;;;;;;16.50;10.20;;;;;;;-1.15;100.00;100365.94;109474;1252;73356;-54
2024/03/06 02:46:32;;;;;;;15.60;8.90;;;;;;;-1.17;100.00;100363.92;109439;1253;66859;-56
2024/03/06 02:49:00;;;;;;;16.00;10.20;;;;;;;-1.21;100.00;100371.16;109448;1253;72755;-55
2024/03/06 02:51:27;;;;;;;15.60;9.60;;;;;;;-1.26;100.00;100374.17;109441;1252;59550;-53
2024/03/06 02:53:55;;;;;;;16.90;9.70;;;;;;;-1.29;100.00;100374.75;109459;1252;59004;-53
2024/03/06 02:56:22;;;;;;;17.10;10.40;;;;;;;-1.32;100.00;100379.04;109441;1252;74636;-53
2024/03/06 02:58:50;;;;;;;15.00;8.30;;;;;;;-1.37;100.00;100380.38;109422;1253;66126;-60
2024/03/06 03:01:18;;;;;;;17.30;8.70;;;;;;;-1.38;100.00;100380.48;109410;1253;72878;-53
2024/03/06 03:03:47;;;;;;;16.70;9.80;;;;;;;-1.40;100.00;100379.43;109418;1253;59334;-53
2024/03/06 03:06:14;;;;;;;14.80;10.10;;;;;;;-1.41;100.00;100383.58;109431;1253;59324;-53
2024/03/06 03:08:42;;;;;;;16.80;9.90;;;;;;;-1.42;100.00;100384.33;109461;1252;73408;-53
2024/03/06 03:11:10;;;;;;;16.80;10.40;;;;;;;-1.45;100.00;100382.78;109373;1253;64669;-55
2024/03/06 03:13:37;;;;;;;14.90;9.10;;;;;;;-1.46;100.00;100388.84;109446;1253;72643;-54
2024/03/06 03:16:05;;;;;;;16.10;9.40;;;;;;;-1.48;100.00;100392.85;109419;1252;59312;-53
2024/03/06 03:18:33;;;;;;;17.90;9.50;;;;;;;-1.49;100.00;100396.36;109456;1252;59254;-54
2024/03/06 03:21:01;;;;;;;14.30;9.70;;;;;;;-1.50;100.00;100396.77;109295;1253;73427;-54
2024/03/06 03:23:29;;;;;;;13.70;8.40;;;;;;;-1.51;100.00;100397.21;109440;1252;67598;-53
2024/03/06 03:25:56;;;;;;;20.00;8.90;;;;;;;-1.51;100.00;100402.13;109396;1252;72657;-54
2024/03/06 03:28:24;;;;;;;18.70;9.70;;;;;;;-1.50;100.00;100400.39;109389;1252;61049;-54
2024/03/06 03:30:51;;;;;;;18.40;9.30;;;;;;;-1.50;100.00;100398.84;109426;1252;60096;-54
2024/03/06 03:33:19;;;;;;;19.20;10.10;;;;;;;-1.52;100.00;100396.37;109402;1252;74622;-53
2024/03/06 03:35:47;;;;;;;14.70;9.70;;;;;;;-1.51;100.00;100401.45;109462;1252;65847;-53
2024/03/06 03:38:14;;;;;;;16.10;9.40;;;;;;;-1.52;100.00;100402.34;109419;1253;72691;-54
2024/03/06 03:40:42;;;;;;;16.30;9.50;;;;;;;-1.55;100.00;100406.64;109423;1252;60952;-54
2024/03/06 03:43:10;;;;;;;17.60;10.10;;;;;;;-1.58;100.00;100411.64;109407;1252;58921;-57
2024/03/06 03:45:38;;;;;;;13.40;8.80;;;;;;;-1.61;100.00;100413.69;109412;1253;74572;-54
2024/03/06 03:48:06;;;;;;;17.80;9.40;;;;;;;-1.62;100.00;100414.65;109437;1252;65806;-53
2024/03/06 03:50:34;;;;;;;15.10;8.90;;;;;;;-1.63;100.00;100419.64;109444;1253;73045;-53
2024/03/06 03:53:01;;;;;;;13.70;8.80;;;;;;;-1.64;100.00;100420.86;109338;1253;59648;-56
2024/03/06 03:55:29;;;;;;;15.00;9.70;;;;;;;-1.66;100.00;100423.79;109400;1253;59630;-54
2024/03/06 03:57:57;;;;;;;14.60;8.90;;;;;;;-1.70;100.00;100422.45;109412;1252;74733;-54
2024/03/06 04:00:24;;;;;;;18.40;10.10;;;;;;;-1.72;100.00;100425.14;109413;1252;66827;-53
2024/03/06 04:02:52;;;;;;;18.30;9.50;;;;;;;-1.72;100.00;100424.09;109430;1252;71352;-55
2024/03/06 04:05:21;;;;;;;18.70;9.60;;;;;;;-1.71;100.00;100427.63;109384;1253;59690;-54
2024/03/06 04:07:48;;;;;;;16.20;8.80;;;;;;;-1.72;100.00;100429.07;109419;1253;60221;-53
2024/03/06 04:10:16;;;;;;;21.40;9.30;;;;;;;-1.72;100.00;100433.36;109467;1253;74684;-56
2024/03/06 04:12:44;;;;;;;18.40;10.40;;;;;;;-1.72;100.00;100432.83;109432;1252;65756;-53
2024/03/06 04:15:11;;;;;;;17.50;9.90;;;;;;;-1.71;100.00;100438.02;109396;1253;72693;-59
2024/03/06 04:17:40;;;;;;;17.50;10.70;;;;;;;-1.67;100.00;100438.81;109378;1252;59635;-55
2024/03/06 04:20:11;;;;;;;17.60;10.50;;;;;;;-1.65;100.00;100441.57;109392;1252;59077;-53
2024/03/06 04:22:40;;;;;;;19.90;9.50;;;;;;;-1.63;100.00;100438.08;109407;1253;73725;-54
2024/03/06 04:25:08;;;;;;;19.50;11.10;;;;;;;-1.61;100.00;100439.62;109387;1252;66889;-53
2024/03/06 04:27:35;;;;;;;18.60;10.30;;;;;;;-1.59;100.00;100447.15;109447;1252;71482;-53
2024/03/06 04:30:04;;;;;;;23.00;11.90;;;;;;;-1.54;100.00;100448.52;109413;1253;59722;-54
2024/03/06 04:32:32;;;;;;;17.80;9.80;;;;;;;-1.45;100.00;100451.84;109446;1252;60057;-54
2024/03/06 04:34:59;;;;;;;21.60;9.70;;;;;;;-1.33;100.00;100446.42;109382;1252;75233;-54
2024/03/06 04:37:29;;;;;;;18.70;10.70;;;;;;;-1.21;100.00;100447.18;109423;1253;65706;-54
2024/03/06 04:39:57;;;;;;;17.90;10.20;;;;;;;-1.11;100.00;100450.44;109417;1252;72678;-54
2024/03/06 04:42:24;;;;;;;19.40;11.80;;;;;;;-1.00;100.00;100451.89;109429;1252;58977;-54
2024/03/06 04:44:52;;;;;;;18.50;10.90;;;;;;;-0.88;100.00;100456.58;109400;1252;60159;-59
2024/03/06 04:47:20;;;;;;;26.10;14.30;;;;;;;-0.74;100.00;100457.45;109370;1253;72955;-53
2024/03/06 04:49:49;;;;;;;20.50;10.60;;;;;;;-0.58;100.00;100455.68;109399;1253;65651;-54
2024/03/06 04:52:17;;;;;;;17.40;10.90;;;;;;;-0.42;100.00;100457.45;109410;1253;71420;-54
2024/03/06 04:54:45;;;;;;;19.30;10.10;;;;;;;-0.29;100.00;100460.42;109426;1252;59143;-58
2024/03/06 04:57:12;;;;;;;18.60;10.80;;;;;;;-0.23;100.00;100457.88;109396;1253;60576;-52
2024/03/06 04:59:40;;;;;;;24.90;12.70;;;;;;;-0.23;100.00;100462.13;109434;1253;74627;-52
2024/03/06 05:02:08;;;;;;;18.50;10.70;;;;;;;-0.23;100.00;100460.94;109394;1252;66900;-52
2024/03/06 05:04:36;;;;;;;22.50;11.20;;;;;;;-0.25;100.00;100461.55;109395;1253;71008;-54
2024/03/06 05:07:21;;;;;;;21.80;12.10;;;;;;;-0.26;100.00;100462.66;109403;1253;59628;-52
2024/03/06 05:10:09;;;;;;;17.90;10.40;;;;;;;-0.25;100.00;100458.80;109405;1253;60296;-58
2024/03/06 05:12:54;;;;;;;28.40;14.40;;;;;;;-0.21;100.00;100465.77;109411;1252;73430;-53
2024/03/06 05:15:39;;;;;;;20.00;11.20;;;;;;;-0.16;100.00;100467.73;109414;1252;65755;-53
2024/03/06 05:18:24;;;;;;;25.10;13.00;;;;;;;-0.10;100.00;100472.98;109400;1253;72794;-53
2024/03/06 05:21:08;;;;;;;20.00;10.80;;;;;;;-0.05;100.00;100464.02;109411;1253;59137;-52
2024/03/06 05:23:54;;;;;;;20.40;11.00;;;;;;;0.07;100.00;100463.25;109308;1251;59003;-54
2024/03/06 05:26:38;;;;;;;18.20;10.40;;;;;;;0.13;100.00;100459.36;109487;1254;74662;-53
2024/03/06 05:29:23;;;;;;;25.40;13.90;;;;;;;0.18;100.00;100456.95;109435;1251;66950;-53
2024/03/06 05:32:08;;;;;;;17.70;9.70;;;;;;;0.24;100.00;100454.28;109440;1251;71433;-53
2024/03/06 05:34:53;;;;;;;16.90;10.40;;;;;;;0.26;100.00;100456.23;109427;1253;59613;-54
2024/03/06 05:37:37;;;;;;;17.70;9.80;;;;;;;0.25;100.00;100463.98;109469;1251;60114;-53
2024/03/06 05:40:22;;;;;;;21.90;10.10;;;;;;;0.22;100.00;100461.75;109455;1252;74790;-53
2024/03/06 05:43:07;;;;;;;15.00;9.40;;;;;;;0.23;100.00;100468.05;109452;1251;67056;-55
2024/03/06 05:45:53;;;;;;;17.20;9.80;;;;;;;0.20;100.00;100464.27;109399;1251;71431;-53
2024/03/06 05:48:38;;;;;;;16.50;10.30;;;;;;;0.15;100.00;100468.45;109448;1253;59452;-53
2024/03/06 05:51:22;;;;;;;17.80;9.70;;;;;;;0.11;100.00;100463.45;109458;1251;60058;-52
2024/03/06 05:54:09;;;;;;;18.50;10.30;;;;;;;0.07;100.00;100467.67;109423;1251;74720;-53
2024/03/06 05:56:54;;;;;;;15.20;9.80;;;;;;;-0.01;100.00;100472.80;109449;1251;66901;-53
2024/03/06 05:59:39;;;;;;;18.10;9.40;;;;;;;0.01;100.00;100472.54;109421;1252;71427;-58
2024/03/06 06:02:07;;;;;;;19.50;11.30;;;;;;;0.06;100.00;100472.85;109468;1252;60156;-53
2024/03/06 06:04:35;;;;;;;17.00;10.50;;;;;;;0.12;100.00;100476.19;109414;1253;61160;-54
2024/03/06 06:07:15;;;;;;;22.90;10.50;;;;;;;0.19;100.00;100479.40;109449;1252;74620;-53
2024/03/06 06:09:43;;;;;;;20.60;10.00;;;;;;;0.25;100.00;100476.09;109403;1251;66902;-56
2024/03/06 06:12:10;;;;;;;17.90;10.80;;;;;;;0.30;100.00;100482.59;109465;1252;73432;-54
2024/03/06 06:14:38;;;;;;;18.60;10.50;;;;;;;0.30;100.00;100479.48;109439;1251;59056;-53
2024/03/06 06:17:06;;;;;;;20.90;10.30;;;;;;;0.28;100.00;100482.04;109506;1252;60180;-53
2024/03/06 06:19:33;;;;;;;15.60;10.40;;;;;;;0.27;100.00;100486.54;109451;1252;74685;-53
2024/03/06 06:22:01;;;;;;;17.30;9.60;;;;;;;0.31;100.00;100489.15;109443;1253;66953;-53
2024/03/06 06:24:29;;;;;;;19.00;10.90;;;;;;;0.33;100.00;100489.02;109406;1251;71722;-53
2024/03/06 06:26:57;;;;;;;18.50;10.40;;;;;;;0.37;100.00;100493.72;109438;1251;59681;-53
2024/03/06 06:29:24;;;;;;;15.90;10.30;;;;;;;0.41;100.00;100492.41;109445;1251;60108;-53
2024/03/06 06:31:52;;;;;;;17.50;10.70;;;;;;;0.46;100.00;100490.99;109345;1252;74651;-53
2024/03/06 06:34:20;;;;;;;17.70;10.90;;;;;;;0.49;100.00;100492.80;109434;1252;65668;-53
2024/03/06 06:36:47;;;;;;;16.80;9.80;;;;;;;0.51;100.00;100497.77;109436;1251;71443;-53
2024/03/06 06:39:16;;;;;;;17.70;10.40;;;;;;;0.56;100.00;100501.03;109446;1252;60877;-53
2024/03/06 06:41:44;;;;;;;19.40;10.60;;;;;;;0.63;100.00;100504.29;109413;1251;59446;-55
2024/03/06 06:44:11;;;;;;;21.00;12.20;;;;;;;0.68;100.00;100501.88;109494;1251;74700;-53
2024/03/06 06:46:39;;;;;;;22.40;11.80;;;;;;;0.70;100.00;100503.08;109454;1251;67220;-53
2024/03/06 06:49:07;;;;;;;19.30;11.90;;;;;;;0.72;100.00;100506.48;109412;1252;74848;-53
2024/03/06 06:51:35;;;;;;;17.40;10.40;;;;;;;0.77;100.00;100511.27;109452;1251;61359;-54
2024/03/06 06:54:04;;;;;;;18.20;10.80;;;;;;;0.83;100.00;100512.20;109455;1251;62539;-54
2024/03/06 06:56:31;;;;;;;19.40;11.10;;;;;;;0.87;100.00;100510.02;109457;1253;77262;-54
2024/03/06 06:58:59;;;;;;;20.30;11.30;;;;;;;0.90;100.00;100515.75;109435;1251;66473;-52
2024/03/06 07:01:27;;;;;;;19.70;11.80;;;;;;;0.94;100.00;100513.56;109385;1252;74743;-53
2024/03/06 07:03:55;;;;;;;21.30;11.50;;;;;;;0.99;100.00;100515.77;109385;1251;61446;-53
2024/03/06 07:06:23;;;;;;;18.20;10.90;;;;;;;1.04;100.00;100516.80;109425;1253;61075;-52
2024/03/06 07:08:50;;;;;;;23.60;12.20;;;;;;;1.03;100.00;100512.06;109442;1253;76796;-53
2024/03/06 07:11:18;;;;;;;17.00;9.80;;;;;;;1.02;100.00;100509.09;109445;1253;68777;-54
2024/03/06 07:13:46;;;;;;;17.00;10.40;;;;;;;1.04;100.00;100509.08;109420;1253;74765;-54
2024/03/06 07:16:14;;;;;;;16.90;10.70;;;;;;;1.07;100.00;100515.73;109397;1251;61779;-55
2024/03/06 07:18:42;;;;;;;21.10;10.80;;;;;;;1.09;100.00;100517.97;109431;1252;60750;-53
2024/03/06 07:21:10;;;;;;;17.50;10.40;;;;;;;1.15;100.00;100516.80;109407;1251;76758;-53
2024/03/06 07:23:37;;;;;;;22.30;10.80;;;;;;;1.23;100.00;100518.28;109342;1254;68879;-54
2024/03/06 07:26:06;;;;;;;19.60;9.70;;;;;;;1.34;100.00;100524.09;109463;1252;74802;-53
2024/03/06 07:28:33;;;;;;;19.90;10.50;;;;;;;1.44;100.00;100527.30;109457;1252;61555;-53
2024/03/06 07:31:02;;;;;;;18.20;11.30;;;;;;;1.49;100.00;100519.52;109416;1253;59447;-53
2024/03/06 07:33:31;;;;;;;21.90;12.90;;;;;;;1.61;100.00;100518.75;109477;1252;78387;-53
2024/03/06 07:35:58;;;;;;;21.90;12.00;;;;;;;1.71;100.00;100516.64;109395;1256;68262;-53
2024/03/06 07:38:26;;;;;;;18.10;11.60;;;;;;;1.77;100.00;100521.32;109462;1252;74835;-53
2024/03/06 07:40:54;;;;;;;18.30;11.20;;;;;;;1.84;100.00;100528.14;109415;1255;61575;-53
2024/03/06 07:43:23;;;;;;;19.00;10.80;;;;;;;1.88;100.00;100525.69;109390;1253;60996;-54
2024/03/06 07:45:51;;;;;;;16.80;9.90;;;;;;;1.95;100.00;100525.76;109431;1252;76695;-59
2024/03/06 07:48:19;;;;;;;15.70;9.80;;;;;;;2.06;100.00;100523.29;109416;1252;68246;-54
2024/03/06 07:50:47;;;;;;;19.20;9.80;;;;;;;2.19;100.00;100521.89;109411;1251;74868;-54
2024/03/06 07:53:16;;;;;;;18.20;11.10;;;;;;;2.32;100.00;100522.10;109461;1254;61365;-54
2024/03/06 07:55:44;;;;;;;26.90;12.30;;;;;;;2.34;100.00;100521.77;109437;1251;59258;-54
2024/03/06 07:58:11;;;;;;;14.40;9.70;;;;;;;2.42;100.00;100520.04;109401;1251;75814;-56
2024/03/06 08:00:39;;;;;;;17.60;9.10;;;;;;;2.46;100.00;100520.75;109468;1251;66466;-54
2024/03/06 08:03:07;;;;;;;15.10;9.40;;;;;;;2.51;100.00;100522.11;109391;1251;74754;-54
2024/03/06 08:05:35;;;;;;;20.50;10.80;;;;;;;2.62;100.00;100524.79;109474;1251;60172;-54
2024/03/06 08:08:04;;;;;;;19.80;11.00;;;;;;;2.72;100.00;100527.42;109416;1251;61020;-58
2024/03/06 08:10:33;;;;;;;15.90;9.60;;;;;;;2.78;100.00;100529.15;109442;1251;75926;-54
2024/03/06 08:13:01;;;;;;;16.70;9.60;;;;;;;2.88;100.00;100527.61;109485;1251;68609;-53
2024/03/06 08:15:29;;;;;;;18.40;10.00;;;;;;;2.99;100.00;100528.09;109441;1251;74765;-54
2024/03/06 08:17:57;;;;;;;20.70;10.40;;;;;;;3.06;100.00;100530.28;109353;1251;61409;-54
2024/03/06 08:20:25;;;;;;;15.30;9.80;;;;;;;3.07;100.00;100528.42;109442;1253;62500;-54
2024/03/06 08:22:52;;;;;;;16.70;10.00;;;;;;;3.08;100.00;100529.27;109480;1251;78072;-54
2024/03/06 08:25:20;;;;;;;19.90;10.10;;;;;;;3.08;100.00;100525.33;109445;1251;67629;-54
2024/03/06 08:27:48;;;;;;;14.30;9.70;;;;;;;3.12;100.00;100522.19;109379;1254;75992;-55
2024/03/06 08:30:16;;;;;;;21.20;9.80;;;;;;;3.18;100.00;100522.42;109443;1251;60711;-54
2024/03/06 08:32:43;;;;;;;15.90;9.70;;;;;;;3.30;100.00;100523.30;109528;1251;62539;-55
2024/03/06 08:35:12;;;;;;;17.40;8.80;;;;;;;3.34;100.00;100518.80;109532;1251;75627;-54
2024/03/06 08:37:45;;;;;;;19.80;9.50;;;;;;;3.35;100.00;100516.54;109392;1253;68778;-60
2024/03/06 08:40:17;;;;;;;14.70;8.50;;;;;;;3.40;100.00;100518.27;109366;1251;75064;-55
2024/03/06 08:42:47;;;;;;;18.10;9.40;;;;;;;3.40;100.00;100520.71;109440;1251;61083;-54
2024/03/06 08:45:15;;;;;;;18.80;9.70;;;;;;;3.34;100.00;100519.04;109468;1252;61111;-54
2024/03/06 08:47:47;;;;;;;15.40;9.20;;;;;;;3.29;100.00;100516.11;109420;1251;75993;-54
2024/03/06 08:50:15;;;;;;;16.30;9.70;;;;;;;3.31;100.00;100515.30;109544;1251;70524;-55
2024/03/06 08:52:43;;;;;;;15.70;9.10;;;;;;;3.36;100.00;100523.30;109505;1251;76137;-54
2024/03/06 08:55:11;;;;;;;16.70;9.40;;;;;;;3.49;100.00;100513.58;109438;1251;61654;-53
2024/03/06 08:57:39;;;;;;;14.00;9.00;;;;;;;3.64;100.00;100511.77;109483;1251;62346;-58
2024/03/06 09:00:10;;;;;;;171.60;91.60;;;;;;;3.79;100.00;100510.17;109516;1251;75571;-54
2024/03/06 09:02:40;;;;;;;26.50;15.80;;;;;;;3.98;100.00;100510.02;109494;1251;69294;-54
2024/03/06 09:05:10;;;;;;;23.50;14.30;;;;;;;4.15;100.00;100512.52;109498;1251;75031;-54
2024/03/06 09:07:40;;;;;;;21.00;12.40;;;;;;;4.23;100.00;100508.15;109470;1251;60372;-54
2024/03/06 09:10:09;;;;;;;26.70;14.90;;;;;;;4.28;100.00;100513.65;109350;1251;62250;-57
2024/03/06 09:12:37;;;;;;;108.90;64.40;;;;;;;4.38;100.00;100513.57;109459;1251;76823;-54
2024/03/06 09:15:08;;;;;;;29.00;16.70;;;;;;;4.60;100.00;100505.94;109489;1251;68258;-53
2024/03/06 09:17:38;;;;;;;20.20;11.90;;;;;;;4.74;100.00;100514.97;109440;1251;72888;-54
2024/03/06 09:20:12;;;;;;;133.90;79.80;;;;;;;4.71;100.00;100517.51;109406;1251;61701;-54
2024/03/06 09:22:41;;;;;;;33.80;20.20;;;;;;;4.70;100.00;100509.84;109454;1251;61989;-53
2024/03/06 09:25:13;;;;;;;29.90;18.60;;;;;;;4.70;100.00;100512.93;109464;1251;77555;-54
2024/03/06 09:27:43;;;;;;;48.50;31.80;;;;;;;4.75;100.00;100509.52;109438;1251;68631;-54
2024/03/06 09:30:13;;;;;;;54.10;37.80;;;;;;;4.88;100.00;100506.36;109457;1251;73707;-54
2024/03/06 09:32:42;;;;;;;142.90;77.10;;;;;;;5.02;100.00;100500.23;109496;1251;62040;-54
2024/03/06 09:35:10;;;;;;;599.90;381.90;;;;;;;5.15;100.00;100496.41;109416;1251;61153;-55
2024/03/06 09:37:38;;;;;;;105.10;54.40;;;;;;;5.33;100.00;100499.77;109339;1251;75768;-55
2024/03/06 09:40:07;;;;;;;587.40;335.70;;;;;;;5.53;100.00;100500.66;109462;1251;67138;-54
2024/03/06 09:42:35;;;;;;;145.20;73.70;;;;;;;5.71;100.00;100502.69;109393;1251;72811;-56
2024/03/06 09:45:04;;;;;;;449.00;262.30;;;;;;;5.85;100.00;100501.53;109430;1251;60263;-55
2024/03/06 09:47:32;;;;;;;521.60;310.40;;;;;;;6.06;100.00;100500.77;109165;1251;61131;-55
2024/03/06 09:50:02;;;;;;;236.50;123.70;;;;;;;6.26;100.00;100503.30;109459;1251;77593;-54
2024/03/06 09:52:30;;;;;;;342.50;193.40;;;;;;;6.25;100.00;100500.14;109364;1251;67986;-55
2024/03/06 09:54:59;;;;;;;148.40;68.40;;;;;;;6.17;100.00;100501.48;109455;1251;73755;-53
2024/03/06 09:57:26;;;;;;;383.60;216.90;;;;;;;6.03;100.00;100493.33;109284;1253;61136;-59
2024/03/06 09:59:54;;;;;;;375.40;186.50;;;;;;;5.95;100.00;100493.09;109368;1254;62113;-54
2024/03/06 10:02:37;;;;;;;101.80;52.00;;;;;;;6.06;100.00;100485.40;109439;1251;77439;-55
2024/03/06 10:05:06;;;;;;;349.50;196.10;;;;;;;6.14;100.00;100487.73;109218;1252;68318;-55
2024/03/06 10:07:34;;;;;;;649.60;379.60;;;;;;;6.27;100.00;100484.91;109318;1253;74183;-54
2024/03/06 10:10:02;;;;;;;88.60;46.00;;;;;;;6.60;100.00;100482.20;109423;1255;60743;-54
2024/03/06 10:12:30;;;;;;;429.00;224.90;;;;;;;6.99;100.00;100475.23;109493;1253;61646;-55
2024/03/06 10:14:58;;;;;;;216.70;95.00;;;;;;;7.43;100.00;100468.36;109468;1251;76741;-54
2024/03/06 10:17:27;;;;;;;705.10;401.60;;;;;;;7.90;100.00;100467.27;109446;1251;67825;-54
2024/03/06 10:19:58;;;;;;;93.00;47.80;;;;;;;8.19;98.97;100466.17;109494;1251;73739;-55
2024/03/06 10:22:26;;;;;;;182.70;83.40;;;;;;;8.33;91.29;100463.98;109408;1254;61405;-54
2024/03/06 10:24:57;;;;;;;531.80;329.70;;;;;;;8.23;86.22;100457.07;109429;1253;61057;-54
2024/03/06 10:27:25;;;;;;;806.30;549.50;;;;;;;8.19;86.01;100456.09;109489;1251;76191;-55
2024/03/06 10:30:03;;;;;;;374.30;212.40;;;;;;;8.27;87.08;100453.52;109501;1251;68936;-55
2024/03/06 10:32:32;;;;;;;451.40;252.10;;;;;;;8.41;82.58;100450.08;109479;1251;73723;-55
2024/03/06 10:35:01;;;;;;;397.80;220.50;;;;;;;8.47;80.96;100451.15;109388;1251;61724;-56
2024/03/06 10:37:29;;;;;;;35.10;20.60;;;;;;;8.59;78.32;100453.11;109456;1252;62408;-55
2024/03/06 10:39:58;;;;;;;269.60;142.50;;;;;;;8.52;76.30;100454.85;109463;1254;75791;-54
2024/03/06 10:42:27;;;;;;;176.30;92.20;;;;;;;8.60;77.98;100445.58;109404;1254;68823;-54
2024/03/06 10:44:55;;;;;;;118.10;62.70;;;;;;;8.77;74.93;100449.35;109400;1252;73670;-57
2024/03/06 10:47:23;;;;;;;255.20;128.80;;;;;;;8.85;73.08;100451.95;109476;1253;60219;-54
2024/03/06 10:49:51;;;;;;;405.00;249.20;;;;;;;8.90;71.58;100450.90;109427;1254;61880;-54
2024/03/06 10:52:21;;;;;;;622.70;425.80;;;;;;;8.90;71.90;100452.50;109188;1252;76793;-55
2024/03/06 10:54:48;;;;;;;184.90;108.50;;;;;;;9.02;72.83;100452.74;109341;1253;67915;-54
2024/03/06 10:57:16;;;;;;;124.60;67.10;;;;;;;9.12;68.64;100455.24;109325;1254;74795;-55
2024/03/06 10:59:44;;;;;;;22.20;14.00;;;;;;;8.96;66.23;100463.20;109195;1254;61348;-53
2024/03/06 11:02:12;;;;;;;158.10;87.90;;;;;;;8.60;66.05;100463.39;109306;1254;62147;-55
2024/03/06 11:04:41;;;;;;;325.50;160.80;;;;;;;8.28;70.90;100468.64;109434;1254;75218;-54
2024/03/06 11:07:09;;;;;;;211.10;118.80;;;;;;;8.18;72.44;100465.27;109172;1254;69357;-56
2024/03/06 11:09:42;;;;;;;132.00;73.20;;;;;;;8.05;75.06;100463.92;109428;1253;74718;-54